Terminal Aerodrome Forecast
Issued by NWS

Home | Current Version | Previous Version | Text Only | Print | Product List | Glossary Off
Versions: 1 2 3 4 5 6 7 8 9 10 11 12 13 14 15 16 17 18 19 20 21

000
FTUS42 KMHX 220149 AAA
TAFPGV
TAF AMD
KPGV 220149Z 2202/2224 13006KT 6SM -SHRA OVC003
     FM220300 18008KT 3SM BR OVC003
     FM220900 24005KT 1/2SM FG OVC002
     FM221300 24005KT 3SM SHRA VCTS OVC002CB
     FM222000 19009KT P6SM SHRA VCTS BKN020CB
      AMD LTD TO CLD VIS AND WIND=

USA.gov is the U.S. government's official web portal to all federal, state and local government web resources and services.